sensor_id;sensor_type;location;lat;lon;timestamp;pressure;altitude;pressure_sealevel;temperature;humidity
17054;BME280;8643;48.824;11.422;2022-12-10T00:01:49;95669.56;;;-0.46;100.00
17054;BME280;8643;48.824;11.422;2022-12-10T00:04:19;95666.97;;;-0.51;100.00
17054;BME280;8643;48.824;11.422;2022-12-10T00:06:48;95662.97;;;-0.53;100.00
17054;BME280;8643;48.824;11.422;2022-12-10T00:09:19;95672.88;;;-0.49;100.00
17054;BME280;8643;48.824;11.422;2022-12-10T00:11:50;95674.66;;;-0.44;100.00
17054;BME280;8643;48.824;11.422;2022-12-10T00:14:18;95672.53;;;-0.47;100.00
17054;BME280;8643;48.824;11.422;2022-12-10T00:16:47;95680.63;;;-0.47;100.00
17054;BME280;8643;48.824;11.422;2022-12-10T00:19:15;95670.75;;;-0.52;100.00
17054;BME280;8643;48.824;11.422;2022-12-10T00:21:44;95677.13;;;-0.48;100.00
17054;BME280;8643;48.824;11.422;2022-12-10T00:24:13;95672.53;;;-0.47;100.00
17054;BME280;8643;48.824;11.422;2022-12-10T00:26:42;95674.53;;;-0.53;100.00
17054;BME280;8643;48.824;11.422;2022-12-10T00:29:14;95675.22;;;-0.47;100.00
17054;BME280;8643;48.824;11.422;2022-12-10T00:31:43;95673.50;;;-0.38;100.00
17054;BME280;8643;48.824;11.422;2022-12-10T00:34:12;95674.88;;;-0.41;100.00
17054;BME280;8643;48.824;11.422;2022-12-10T00:36:44;95674.94;;;-0.46;100.00
17054;BME280;8643;48.824;11.422;2022-12-10T00:39:15;95675.19;;;-0.42;100.00
17054;BME280;8643;48.824;11.422;2022-12-10T00:41:43;95688.69;;;-0.47;100.00
17054;BME280;8643;48.824;11.422;2022-12-10T00:44:14;95688.69;;;-0.47;100.00
17054;BME280;8643;48.824;11.422;2022-12-10T00:46:43;95688.69;;;-0.47;100.00
17054;BME280;8643;48.824;11.422;2022-12-10T00:49:13;95692.56;;;-0.53;100.00
17054;BME280;8643;48.824;11.422;2022-12-10T00:51:42;95690.16;;;-0.55;100.00
17054;BME280;8643;48.824;11.422;2022-12-10T00:54:11;95693.72;;;-0.60;100.00
17054;BME280;8643;48.824;11.422;2022-12-10T00:56:40;95691.59;;;-0.63;100.00
17054;BME280;8643;48.824;11.422;2022-12-10T00:59:09;95689.19;;;-0.64;100.00
17054;BME280;8643;48.824;11.422;2022-12-10T01:01:41;95692.19;;;-0.66;100.00
17054;BME280;8643;48.824;11.422;2022-12-10T01:04:14;95680.06;;;-0.63;100.00
17054;BME280;8643;48.824;11.422;2022-12-10T01:06:45;95676.53;;;-0.64;100.00
17054;BME280;8643;48.824;11.422;2022-12-10T01:09:16;95679.88;;;-0.72;100.00
17054;BME280;8643;48.824;11.422;2022-12-10T01:11:48;95683.16;;;-0.75;100.00
17054;BME280;8643;48.824;11.422;2022-12-10T01:14:21;95689.56;;;-0.71;100.00
17054;BME280;8643;48.824;11.422;2022-12-10T01:16:54;95696.25;;;-0.68;100.00
17054;BME280;8643;48.824;11.422;2022-12-10T01:19:24;95698.72;;;-0.72;100.00
17054;BME280;8643;48.824;11.422;2022-12-10T01:21:54;95701.09;;;-0.70;100.00
17054;BME280;8643;48.824;11.422;2022-12-10T01:24:24;95700.81;;;-0.69;100.00
17054;BME280;8643;48.824;11.422;2022-12-10T01:26:54;95707.81;;;-0.68;100.00
17054;BME280;8643;48.824;11.422;2022-12-10T01:29:23;95707.81;;;-0.68;100.00
17054;BME280;8643;48.824;11.422;2022-12-10T01:31:56;95708.31;;;-0.66;100.00
17054;BME280;8643;48.824;11.422;2022-12-10T01:34:26;95709.63;;;-0.63;100.00
17054;BME280;8643;48.824;11.422;2022-12-10T01:36:56;95716.09;;;-0.64;100.00
17054;BME280;8643;48.824;11.422;2022-12-10T01:39:25;95727.34;;;-0.62;100.00
17054;BME280;8643;48.824;11.422;2022-12-10T01:41:55;95726.34;;;-0.66;100.00
17054;BME280;8643;48.824;11.422;2022-12-10T01:45:10;95726.84;;;-0.64;100.00
17054;BME280;8643;48.824;11.422;2022-12-10T01:47:40;95727.41;;;-0.67;100.00
17054;BME280;8643;48.824;11.422;2022-12-10T01:50:09;95729.38;;;-0.73;100.00
17054;BME280;8643;48.824;11.422;2022-12-10T01:52:39;95727.19;;;-0.71;100.00
17054;BME280;8643;48.824;11.422;2022-12-10T01:55:38;95725.31;;;-0.70;100.00
17054;BME280;8643;48.824;11.422;2022-12-10T01:58:08;95724.81;;;-0.72;100.00
17054;BME280;8643;48.824;11.422;2022-12-10T02:00:47;95726.91;;;-0.69;100.00
17054;BME280;8643;48.824;11.422;2022-12-10T02:03:27;95729.03;;;-0.66;100.00
17054;BME280;8643;48.824;11.422;2022-12-10T02:06:06;95724.66;;;-0.62;100.00
17054;BME280;8643;48.824;11.422;2022-12-10T02:08:43;95730.03;;;-0.62;100.00
17054;BME280;8643;48.824;11.422;2022-12-10T02:11:21;95728.22;;;-0.67;100.00
17054;BME280;8643;48.824;11.422;2022-12-10T02:13:58;95722.25;;;-0.64;100.00
17054;BME280;8643;48.824;11.422;2022-12-10T02:16:34;95724.91;;;-0.59;100.00
17054;BME280;8643;48.824;11.422;2022-12-10T02:19:19;95715.72;;;-0.58;100.00
17054;BME280;8643;48.824;11.422;2022-12-10T02:21:52;95721.09;;;-0.58;100.00
17054;BME280;8643;48.824;11.422;2022-12-10T02:24:29;95721.19;;;-0.63;100.00
17054;BME280;8643;48.824;11.422;2022-12-10T02:27:08;95716.09;;;-0.64;100.00
17054;BME280;8643;48.824;11.422;2022-12-10T02:29:43;95715.22;;;-0.60;100.00
17054;BME280;8643;48.824;11.422;2022-12-10T02:32:19;95712.03;;;-0.62;100.00
17054;BME280;8643;48.824;11.422;2022-12-10T02:34:54;95711.50;;;-0.64;100.00
17054;BME280;8643;48.824;11.422;2022-12-10T02:37:30;95712.06;;;-0.67;100.00
17054;BME280;8643;48.824;11.422;2022-12-10T02:40:04;95714.47;;;-0.65;100.00
17054;BME280;8643;48.824;11.422;2022-12-10T02:42:41;95709.72;;;-0.68;100.00
17054;BME280;8643;48.824;11.422;2022-12-10T02:45:13;95705.41;;;-0.69;100.00
17054;BME280;8643;48.824;11.422;2022-12-10T02:47:42;95709.63;;;-0.63;100.00
17054;BME280;8643;48.824;11.422;2022-12-10T02:50:16;95701.31;;;-0.67;100.00
17054;BME280;8643;48.824;11.422;2022-12-10T02:52:49;95696.75;;;-0.66;100.00
17054;BME280;8643;48.824;11.422;2022-12-10T02:55:18;95690.81;;;-0.63;100.00
17054;BME280;8643;48.824;11.422;2022-12-10T02:58:03;95676.25;;;-0.62;100.00
17054;BME280;8643;48.824;11.422;2022-12-10T03:00:45;95673.84;;;-0.64;100.00
17054;BME280;8643;48.824;11.422;2022-12-10T03:03:33;95671.34;;;-0.55;100.00
17054;BME280;8643;48.824;11.422;2022-12-10T03:06:13;95679.19;;;-0.59;100.00
17054;BME280;8643;48.824;11.422;2022-12-10T03:08:49;95679.41;;;-0.55;100.00
17054;BME280;8643;48.824;11.422;2022-12-10T03:11:22;95685.78;;;-0.51;100.00
17054;BME280;8643;48.824;11.422;2022-12-10T03:13:59;95679.41;;;-0.55;100.00
17054;BME280;8643;48.824;11.422;2022-12-10T03:16:35;95698.00;;;-0.59;100.00
17054;BME280;8643;48.824;11.422;2022-12-10T03:19:11;95703.16;;;-0.62;100.00
17054;BME280;8643;48.824;11.422;2022-12-10T03:21:41;95703.38;;;-0.59;100.00
17054;BME280;8643;48.824;11.422;2022-12-10T03:24:11;95701.28;;;-0.62;100.00
17054;BME280;8643;48.824;11.422;2022-12-10T03:26:40;95693.13;;;-0.57;100.00
17054;BME280;8643;48.824;11.422;2022-12-10T03:29:15;95705.25;;;-0.59;100.00
17054;BME280;8643;48.824;11.422;2022-12-10T03:31:47;95703.72;;;-0.65;100.00
17054;BME280;8643;48.824;11.422;2022-12-10T03:34:17;95698.94;;;-0.68;100.00
17054;BME280;8643;48.824;11.422;2022-12-10T03:36:46;95701.03;;;-0.65;100.00
17054;BME280;8643;48.824;11.422;2022-12-10T03:39:17;95694.06;;;-0.66;100.00
17054;BME280;8643;48.824;11.422;2022-12-10T03:41:46;95695.72;;;-0.70;100.00
17054;BME280;8643;48.824;11.422;2022-12-10T03:44:28;95692.25;;;-0.71;100.00
17054;BME280;8643;48.824;11.422;2022-12-10T03:46:58;95699.81;;;-0.73;100.00
17054;BME280;8643;48.824;11.422;2022-12-10T03:49:27;95685.84;;;-0.75;100.00
17054;BME280;8643;48.824;11.422;2022-12-10T03:51:56;95688.84;;;-0.77;100.00
17054;BME280;8643;48.824;11.422;2022-12-10T03:54:25;95692.84;;;-0.74;100.00
17054;BME280;8643;48.824;11.422;2022-12-10T03:56:53;95695.03;;;-0.76;100.00
17054;BME280;8643;48.824;11.422;2022-12-10T03:59:22;95700.09;;;-0.75;100.00
17054;BME280;8643;48.824;11.422;2022-12-10T04:01:51;95695.81;;;-0.76;100.00
17054;BME280;8643;48.824;11.422;2022-12-10T04:04:22;95684.25;;;-0.76;100.00
17054;BME280;8643;48.824;11.422;2022-12-10T04:06:50;95680.19;;;-0.74;100.00
17054;BME280;8643;48.824;11.422;2022-12-10T04:09:20;95680.19;;;-0.74;100.00
17054;BME280;8643;48.824;11.422;2022-12-10T04:11:48;95683.97;;;-0.75;100.00
17054;BME280;8643;48.824;11.422;2022-12-10T04:14:17;95689.84;;;-0.72;100.00
17054;BME280;8643;48.824;11.422;2022-12-10T04:17:04;95700.31;;;-0.71;100.00
17054;BME280;8643;48.824;11.422;2022-12-10T04:19:34;95707.31;;;-0.70;100.00
17054;BME280;8643;48.824;11.422;2022-12-10T04:22:03;95712.41;;;-0.68;100.00
17054;BME280;8643;48.824;11.422;2022-12-10T04:24:51;95715.09;;;-0.68;100.00
17054;BME280;8643;48.824;11.422;2022-12-10T04:27:48;95717.44;;;-0.67;100.00
17054;BME280;8643;48.824;11.422;2022-12-10T04:30:16;95719.06;;;-0.66;100.00
17054;BME280;8643;48.824;11.422;2022-12-10T04:32:45;95722.84;;;-0.67;100.00
17054;BME280;8643;48.824;11.422;2022-12-10T04:35:15;95726.69;;;-0.73;100.00
17054;BME280;8643;48.824;11.422;2022-12-10T04:37:44;95722.31;;;-0.69;100.00
17054;BME280;8643;48.824;11.422;2022-12-10T04:40:12;95725.84;;;-0.68;100.00
17054;BME280;8643;48.824;11.422;2022-12-10T04:42:41;95716.38;;;-0.66;100.00
17054;BME280;8643;48.824;11.422;2022-12-10T04:45:10;95718.50;;;-0.63;100.00
17054;BME280;8643;48.824;11.422;2022-12-10T04:47:38;95710.00;;;-0.70;100.00
17054;BME280;8643;48.824;11.422;2022-12-10T04:50:08;95707.31;;;-0.70;100.00
17054;BME280;8643;48.824;11.422;2022-12-10T04:52:38;95703.22;;;-0.67;100.00
17054;BME280;8643;48.824;11.422;2022-12-10T04:55:07;95690.66;;;-0.72;100.00
17054;BME280;8643;48.824;11.422;2022-12-10T04:57:36;95679.59;;;-0.70;100.00
17054;BME280;8643;48.824;11.422;2022-12-10T05:00:06;95678.09;;;-0.77;100.00
17054;BME280;8643;48.824;11.422;2022-12-10T05:02:35;95677.84;;;-0.80;100.00
17054;BME280;8643;48.824;11.422;2022-12-10T05:05:04;95684.09;;;-0.85;100.00
17054;BME280;8643;48.824;11.422;2022-12-10T05:07:33;95699.94;;;-0.83;100.00
17054;BME280;8643;48.824;11.422;2022-12-10T05:10:04;95701.03;;;-0.84;100.00
17054;BME280;8643;48.824;11.422;2022-12-10T05:12:33;95718.53;;;-0.87;100.00
17054;BME280;8643;48.824;11.422;2022-12-10T05:15:02;95715.28;;;-0.84;100.00
17054;BME280;8643;48.824;11.422;2022-12-10T05:17:32;95718.75;;;-0.83;100.00
17054;BME280;8643;48.824;11.422;2022-12-10T05:20:01;95715.47;;;-0.80;100.00
17054;BME280;8643;48.824;11.422;2022-12-10T05:22:30;95709.59;;;-0.82;100.00
17054;BME280;8643;48.824;11.422;2022-12-10T05:25:17;95715.19;;;-0.79;100.00
17054;BME280;8643;48.824;11.422;2022-12-10T05:27:45;95714.69;;;-0.81;100.00
17054;BME280;8643;48.824;11.422;2022-12-10T05:30:14;95720.66;;;-0.84;100.00
17054;BME280;8643;48.824;11.422;2022-12-10T05:32:43;95725.72;;;-0.82;100.00
17054;BME280;8643;48.824;11.422;2022-12-10T05:35:11;95716.88;;;-0.83;100.00
17054;BME280;8643;48.824;11.422;2022-12-10T05:37:40;95716.88;;;-0.83;100.00
17054;BME280;8643;48.824;11.422;2022-12-10T05:40:10;95712.56;;;-0.84;100.00
17054;BME280;8643;48.824;11.422;2022-12-10T05:42:40;95713.97;;;-0.86;100.00
17054;BME280;8643;48.824;11.422;2022-12-10T05:45:09;95704.00;;;-0.86;100.00
17054;BME280;8643;48.824;11.422;2022-12-10T05:47:38;95694.06;;;-0.85;100.00
17054;BME280;8643;48.824;11.422;2022-12-10T05:50:07;95697.25;;;-0.83;100.00
17054;BME280;8643;48.824;11.422;2022-12-10T05:52:36;95699.66;;;-0.82;100.00
17054;BME280;8643;48.824;11.422;2022-12-10T05:55:05;95716.34;;;-0.85;100.00
17054;BME280;8643;48.824;11.422;2022-12-10T05:57:36;95715.06;;;-0.87;100.00
17054;BME280;8643;48.824;11.422;2022-12-10T06:00:07;95719.91;;;-0.89;100.00
17054;BME280;8643;48.824;11.422;2022-12-10T06:02:39;95719.38;;;-0.92;100.00
17054;BME280;8643;48.824;11.422;2022-12-10T06:05:08;95719.34;;;-0.86;100.00
17054;BME280;8643;48.824;11.422;2022-12-10T06:07:37;95721.50;;;-0.88;100.00
17054;BME280;8643;48.824;11.422;2022-12-10T06:10:06;95732.47;;;-0.85;100.00
17054;BME280;8643;48.824;11.422;2022-12-10T06:12:35;95741.06;;;-0.83;100.00
17054;BME280;8643;48.824;11.422;2022-12-10T06:15:06;95736.03;;;-0.89;100.00
17054;BME280;8643;48.824;11.422;2022-12-10T06:17:34;95729.06;;;-0.90;100.00
17054;BME280;8643;48.824;11.422;2022-12-10T06:20:04;95725.88;;;-0.93;100.00
17054;BME280;8643;48.824;11.422;2022-12-10T06:22:33;95726.44;;;-0.96;100.00
17054;BME280;8643;48.824;11.422;2022-12-10T06:25:02;95722.66;;;-0.95;100.00
17054;BME280;8643;48.824;11.422;2022-12-10T06:27:32;95724.53;;;-0.95;100.00
17054;BME280;8643;48.824;11.422;2022-12-10T06:30:01;95718.88;;;-0.94;100.00
17054;BME280;8643;48.824;11.422;2022-12-10T06:32:31;95716.19;;;-0.94;100.00
17054;BME280;8643;48.824;11.422;2022-12-10T06:34:59;95712.66;;;-0.89;100.00
17054;BME280;8643;48.824;11.422;2022-12-10T06:37:28;95707.00;;;-0.87;100.00
17054;BME280;8643;48.824;11.422;2022-12-10T06:39:56;95707.56;;;-0.90;100.00
17054;BME280;8643;48.824;11.422;2022-12-10T06:42:25;95710.81;;;-0.94;100.00
17054;BME280;8643;48.824;11.422;2022-12-10T06:44:54;95717.28;;;-0.95;100.00
17054;BME280;8643;48.824;11.422;2022-12-10T06:47:22;95721.56;;;-0.94;100.00
17054;BME280;8643;48.824;11.422;2022-12-10T06:49:52;95718.59;;;-0.92;100.00
17054;BME280;8643;48.824;11.422;2022-12-10T06:52:21;95733.09;;;-0.93;100.00
17054;BME280;8643;48.824;11.422;2022-12-10T06:54:49;95725.19;;;-1.03;100.00
17054;BME280;8643;48.824;11.422;2022-12-10T06:57:18;95731.13;;;-1.06;100.00
17054;BME280;8643;48.824;11.422;2022-12-10T06:59:47;95733.09;;;-1.12;100.00
17054;BME280;8643;48.824;11.422;2022-12-10T07:02:15;95734.66;;;-1.11;100.00
17054;BME280;8643;48.824;11.422;2022-12-10T07:04:44;95747.25;;;-1.06;100.00
17054;BME280;8643;48.824;11.422;2022-12-10T07:07:14;95745.03;;;-0.99;100.00
17054;BME280;8643;48.824;11.422;2022-12-10T07:09:42;95760.28;;;-0.95;100.00
17054;BME280;8643;48.824;11.422;2022-12-10T07:12:11;95765.66;;;-0.95;100.00
17054;BME280;8643;48.824;11.422;2022-12-10T07:14:40;95761.09;;;-0.94;100.00
17054;BME280;8643;48.824;11.422;2022-12-10T07:17:08;95765.31;;;-0.88;100.00
17054;BME280;8643;48.824;11.422;2022-12-10T07:19:37;95767.38;;;-0.80;100.00
17054;BME280;8643;48.824;11.422;2022-12-10T07:22:06;95779.44;;;-0.77;100.00
17054;BME280;8643;48.824;11.422;2022-12-10T07:24:36;95778.69;;;-0.83;100.00
17054;BME280;8643;48.824;11.422;2022-12-10T07:27:05;95780.84;;;-0.85;100.00
17054;BME280;8643;48.824;11.422;2022-12-10T07:29:34;95776.34;;;-0.89;100.00
17054;BME280;8643;48.824;11.422;2022-12-10T07:32:03;95785.50;;;-0.90;100.00
17054;BME280;8643;48.824;11.422;2022-12-10T07:34:32;95781.75;;;-0.95;100.00
17054;BME280;8643;48.824;11.422;2022-12-10T07:37:00;95776.09;;;-0.93;100.00
17054;BME280;8643;48.824;11.422;2022-12-10T07:39:29;95775.31;;;-0.94;100.00
17054;BME280;8643;48.824;11.422;2022-12-10T07:41:59;95772.63;;;-0.94;100.00
17054;BME280;8643;48.824;11.422;2022-12-10T07:44:28;95768.28;;;-0.89;100.00
17054;BME280;8643;48.824;11.422;2022-12-10T07:46:57;95766.41;;;-0.89;100.00
17054;BME280;8643;48.824;11.422;2022-12-10T07:49:26;95765.91;;;-0.91;100.00
17054;BME280;8643;48.824;11.422;2022-12-10T07:51:54;95771.34;;;-0.96;100.00
17054;BME280;8643;48.824;11.422;2022-12-10T07:54:23;95775.03;;;-0.92;100.00
17054;BME280;8643;48.824;11.422;2022-12-10T07:56:51;95765.53;;;-0.84;100.00
17054;BME280;8643;48.824;11.422;2022-12-10T07:59:21;95778.50;;;-0.92;100.00
17054;BME280;8643;48.824;11.422;2022-12-10T08:01:49;95778.47;;;-0.86;100.00
17054;BME280;8643;48.824;11.422;2022-12-10T08:04:18;95776.00;;;-0.83;100.00
17054;BME280;8643;48.824;11.422;2022-12-10T08:06:47;95785.66;;;-0.82;100.00
17054;BME280;8643;48.824;11.422;2022-12-10T08:09:15;95790.19;;;-0.77;100.00
17054;BME280;8643;48.824;11.422;2022-12-10T08:11:44;95789.09;;;-0.76;100.00
17054;BME280;8643;48.824;11.422;2022-12-10T08:14:12;95785.31;;;-0.75;100.00
17054;BME280;8643;48.824;11.422;2022-12-10T08:16:42;95781.03;;;-0.76;100.00
17054;BME280;8643;48.824;11.422;2022-12-10T08:19:11;95788.97;;;-0.66;100.00
17054;BME280;8643;48.824;11.422;2022-12-10T08:21:47;95787.03;;;-0.60;100.00
17054;BME280;8643;48.824;11.422;2022-12-10T08:24:16;95784.63;;;-0.62;100.00
17054;BME280;8643;48.824;11.422;2022-12-10T08:26:45;95779.47;;;-0.58;100.00
17054;BME280;8643;48.824;11.422;2022-12-10T08:29:13;95783.69;;;-0.52;100.00
17054;BME280;8643;48.824;11.422;2022-12-10T08:31:44;95773.31;;;-0.40;100.00
17054;BME280;8643;48.824;11.422;2022-12-10T08:34:14;95773.00;;;-0.38;100.00
17054;BME280;8643;48.824;11.422;2022-12-10T08:36:44;95774.91;;;-0.39;100.00
17054;BME280;8643;48.824;11.422;2022-12-10T08:39:13;95779.44;;;-0.34;100.00
17054;BME280;8643;48.824;11.422;2022-12-10T08:41:45;95774.84;;;-0.33;100.00
17054;BME280;8643;48.824;11.422;2022-12-10T08:44:14;95769.25;;;-0.37;100.00
17054;BME280;8643;48.824;11.422;2022-12-10T08:46:43;95775.13;;;-0.35;100.00
17054;BME280;8643;48.824;11.422;2022-12-10T08:49:13;95781.00;;;-0.33;100.00
17054;BME280;8643;48.824;11.422;2022-12-10T08:51:41;95770.81;;;-0.36;100.00
17054;BME280;8643;48.824;11.422;2022-12-10T08:54:10;95787.25;;;-0.38;100.00
17054;BME280;8643;48.824;11.422;2022-12-10T08:56:39;95800.94;;;-0.34;100.00
17054;BME280;8643;48.824;11.422;2022-12-10T08:59:08;95797.50;;;-0.40;100.00
17054;BME280;8643;48.824;11.422;2022-12-10T09:01:36;95803.72;;;-0.39;100.00
17054;BME280;8643;48.824;11.422;2022-12-10T09:04:06;95798.00;;;-0.38;100.00
17054;BME280;8643;48.824;11.422;2022-12-10T09:06:35;95798.31;;;-0.39;100.00
17054;BME280;8643;48.824;11.422;2022-12-10T09:09:03;95801.88;;;-0.44;100.00
17054;BME280;8643;48.824;11.422;2022-12-10T09:11:33;95799.69;;;-0.42;100.00
17054;BME280;8643;48.824;11.422;2022-12-10T09:14:02;95796.44;;;-0.39;100.00
17054;BME280;8643;48.824;11.422;2022-12-10T09:16:33;95802.97;;;-0.26;100.00
17054;BME280;8643;48.824;11.422;2022-12-10T09:19:03;95788.88;;;-0.17;100.00
17054;BME280;8643;48.824;11.422;2022-12-10T09:21:33;95781.31;;;0.04;100.00
17054;BME280;8643;48.824;11.422;2022-12-10T09:24:02;95771.63;;;0.03;100.00
17054;BME280;8643;48.824;11.422;2022-12-10T09:26:33;95777.09;;;0.16;100.00
17054;BME280;8643;48.824;11.422;2022-12-10T09:29:01;95773.72;;;0.25;100.00
17054;BME280;8643;48.824;11.422;2022-12-10T09:31:29;95766.44;;;0.25;100.00
17054;BME280;8643;48.824;11.422;2022-12-10T09:33:58;95772.53;;;0.31;100.00
17054;BME280;8643;48.824;11.422;2022-12-10T09:36:27;95774.03;;;0.37;100.00
17054;BME280;8643;48.824;11.422;2022-12-10T09:39:02;95772.41;;;0.55;100.00
17054;BME280;8643;48.824;11.422;2022-12-10T09:42:01;95770.22;;;0.57;100.00
17054;BME280;8643;48.824;11.422;2022-12-10T09:44:44;95774.31;;;0.68;100.00
17054;BME280;8643;48.824;11.422;2022-12-10T09:47:15;95782.38;;;0.54;100.00
17054;BME280;8643;48.824;11.422;2022-12-10T09:49:53;95787.38;;;0.61;100.00
17054;BME280;8643;48.824;11.422;2022-12-10T09:52:33;95793.84;;;0.60;100.00
17054;BME280;8643;48.824;11.422;2022-12-10T09:55:10;95793.00;;;0.79;100.00
17054;BME280;8643;48.824;11.422;2022-12-10T09:57:43;95794.88;;;0.78;100.00
17054;BME280;8643;48.824;11.422;2022-12-10T10:00:26;95788.59;;;0.69;100.00
17054;BME280;8643;48.824;11.422;2022-12-10T10:02:59;95791.69;;;0.62;100.00
17054;BME280;8643;48.824;11.422;2022-12-10T10:05:31;95789.97;;;0.66;100.00
17054;BME280;8643;48.824;11.422;2022-12-10T10:08:04;95785.16;;;0.49;100.00
17054;BME280;8643;48.824;11.422;2022-12-10T10:10:36;95787.84;;;0.49;100.00
17054;BME280;8643;48.824;11.422;2022-12-10T10:13:15;95791.53;;;0.53;100.00
17054;BME280;8643;48.824;11.422;2022-12-10T10:15:49;95778.63;;;0.69;100.00
17054;BME280;8643;48.824;11.422;2022-12-10T10:18:30;95785.31;;;0.86;100.00
17054;BME280;8643;48.824;11.422;2022-12-10T10:21:01;95785.53;;;0.89;100.00
17054;BME280;8643;48.824;11.422;2022-12-10T10:23:30;95784.34;;;0.96;100.00
17054;BME280;8643;48.824;11.422;2022-12-10T10:26:01;95794.03;;;0.97;100.00
17054;BME280;8643;48.824;11.422;2022-12-10T10:28:30;95802.41;;;0.95;100.00
17054;BME280;8643;48.824;11.422;2022-12-10T10:30:59;95808.19;;;0.88;100.00
17054;BME280;8643;48.824;11.422;2022-12-10T10:33:27;95800.22;;;0.83;100.00
17054;BME280;8643;48.824;11.422;2022-12-10T10:35:58;95800.22;;;0.83;100.00
17054;BME280;8643;48.824;11.422;2022-12-10T10:38:28;95788.03;;;0.86;100.00
17054;BME280;8643;48.824;11.422;2022-12-10T10:41:02;95795.63;;;0.98;100.00
17054;BME280;8643;48.824;11.422;2022-12-10T10:43:39;95787.16;;;1.18;100.00
17054;BME280;8643;48.824;11.422;2022-12-10T10:46:13;95785.25;;;1.19;100.00
17054;BME280;8643;48.824;11.422;2022-12-10T10:48:43;95783.47;;;1.14;100.00
17054;BME280;8643;48.824;11.422;2022-12-10T10:51:20;95781.88;;;1.13;100.00
17054;BME280;8643;48.824;11.422;2022-12-10T10:53:52;95785.94;;;1.52;100.00
17054;BME280;8643;48.824;11.422;2022-12-10T10:56:25;95774.13;;;1.62;100.00
17054;BME280;8643;48.824;11.422;2022-12-10T10:58:59;95768.31;;;1.69;100.00
17054;BME280;8643;48.824;11.422;2022-12-10T11:01:45;95771.84;;;1.55;100.00
17054;BME280;8643;48.824;11.422;2022-12-10T11:04:18;95770.84;;;1.51;100.00
17054;BME280;8643;48.824;11.422;2022-12-10T11:07:00;95774.06;;;1.39;100.00
17054;BME280;8643;48.824;11.422;2022-12-10T11:09:31;95766.78;;;1.26;100.00
17054;BME280;8643;48.824;11.422;2022-12-10T11:12:06;95767.78;;;1.16;100.00
17054;BME280;8643;48.824;11.422;2022-12-10T11:14:48;95774.06;;;1.12;100.00
17054;BME280;8643;48.824;11.422;2022-12-10T11:17:20;95770.75;;;1.01;100.00
17054;BME280;8643;48.824;11.422;2022-12-10T11:19:56;95779.16;;;0.99;100.00
17054;BME280;8643;48.824;11.422;2022-12-10T11:22:27;95776.44;;;0.99;100.00
17054;BME280;8643;48.824;11.422;2022-12-10T11:24:57;95781.06;;;1.13;100.00
17054;BME280;8643;48.824;11.422;2022-12-10T11:27:46;95783.16;;;1.02;100.00
17054;BME280;8643;48.824;11.422;2022-12-10T11:30:23;95779.56;;;1.06;100.00
17054;BME280;8643;48.824;11.422;2022-12-10T11:33:17;95777.97;;;1.05;100.00
17054;BME280;8643;48.824;11.422;2022-12-10T11:36:00;95778.25;;;1.04;100.00
17054;BME280;8643;48.824;11.422;2022-12-10T11:38:39;95772.28;;;1.07;100.00
17054;BME280;8643;48.824;11.422;2022-12-10T11:41:25;95771.69;;;1.24;100.00
17054;BME280;8643;48.824;11.422;2022-12-10T11:44:17;95771.69;;;1.24;100.00
17054;BME280;8643;48.824;11.422;2022-12-10T11:47:24;95774.28;;;1.15;100.00
17054;BME280;8643;48.824;11.422;2022-12-10T11:50:11;95777.44;;;1.17;100.00
17054;BME280;8643;48.824;11.422;2022-12-10T11:52:54;95780.06;;;1.22;100.00
17054;BME280;8643;48.824;11.422;2022-12-10T11:55:38;95773.78;;;1.13;100.00
17054;BME280;8643;48.824;11.422;2022-12-10T11:58:39;95783.38;;;1.19;100.00
17054;BME280;8643;48.824;11.422;2022-12-10T12:01:23;95772.78;;;1.23;100.00
17054;BME280;8643;48.824;11.422;2022-12-10T12:04:20;95769.97;;;1.42;100.00
17054;BME280;8643;48.824;11.422;2022-12-10T12:07:13;95769.75;;;1.38;100.00
17054;BME280;8643;48.824;11.422;2022-12-10T12:10:15;95759.91;;;1.34;100.00
17054;BME280;8643;48.824;11.422;2022-12-10T12:12:57;95760.50;;;1.31;100.00
17054;BME280;8643;48.824;11.422;2022-12-10T12:15:32;95763.88;;;1.36;100.00
17054;BME280;8643;48.824;11.422;2022-12-10T12:18:13;95767.09;;;1.24;100.00
17054;BME280;8643;48.824;11.422;2022-12-10T12:20:53;95765.19;;;1.25;100.00
17054;BME280;8643;48.824;11.422;2022-12-10T12:23:29;95762.47;;;1.39;100.00
17054;BME280;8643;48.824;11.422;2022-12-10T12:26:05;95768.06;;;1.28;100.00
17054;BME280;8643;48.824;11.422;2022-12-10T12:28:41;95777.06;;;1.10;100.00
17054;BME280;8643;48.824;11.422;2022-12-10T12:31:20;95763.88;;;1.08;100.00
17054;BME280;8643;48.824;11.422;2022-12-10T12:33:59;95769.88;;;1.05;100.00
17054;BME280;8643;48.824;11.422;2022-12-10T12:36:31;95767.78;;;1.16;100.00
17054;BME280;8643;48.824;11.422;2022-12-10T12:39:11;95770.88;;;1.23;100.00
17054;BME280;8643;48.824;11.422;2022-12-10T12:41:48;95787.25;;;1.27;100.00
17054;BME280;8643;48.824;11.422;2022-12-10T12:44:33;95787.47;;;1.31;100.00
17054;BME280;8643;48.824;11.422;2022-12-10T12:47:18;95790.44;;;1.43;100.00
17054;BME280;8643;48.824;11.422;2022-12-10T12:49:52;95790.47;;;1.29;100.00
17054;BME280;8643;48.824;11.422;2022-12-10T12:52:29;95799.44;;;0.97;100.00
17054;BME280;8643;48.824;11.422;2022-12-10T12:55:14;95794.44;;;0.90;100.00
17054;BME280;8643;48.824;11.422;2022-12-10T12:57:51;95807.66;;;0.72;100.00
17054;BME280;8643;48.824;11.422;2022-12-10T13:00:23;95802.66;;;0.66;100.00
17054;BME280;8643;48.824;11.422;2022-12-10T13:03:07;95804.19;;;0.72;100.00
17054;BME280;8643;48.824;11.422;2022-12-10T13:05:47;95814.31;;;0.61;100.00
17054;BME280;8643;48.824;11.422;2022-12-10T13:08:29;95812.03;;;0.68;100.00
17054;BME280;8643;48.824;11.422;2022-12-10T13:11:15;95821.72;;;0.69;100.00
17054;BME280;8643;48.824;11.422;2022-12-10T13:14:11;95817.50;;;0.63;100.00
17054;BME280;8643;48.824;11.422;2022-12-10T13:17:01;95817.41;;;0.54;100.00
17054;BME280;8643;48.824;11.422;2022-12-10T13:19:31;95822.06;;;0.49;100.00
17054;BME280;8643;48.824;11.422;2022-12-10T13:22:05;95833.56;;;0.54;100.00
17054;BME280;8643;48.824;11.422;2022-12-10T13:25:09;95839.25;;;0.53;100.00